Time;durP1;ratioP1;P1;durP2;ratioP2;P2;SDS_P1;SDS_P2;PMS_P1;PMS_P2;Temp;Humidity;BMP_temperature;BMP_pressure;BME280_temperature;BME280_humidity;BME280_pressure;Samples;Min_cycle;Max_cycle;Signal;HPM_P1;HPM_P2
2021/10/29 00:00:33;;;;;;;70.65;36.55;;;;;;;5.53;79.76;99509.97;2182343;82;21000;-66
2021/10/29 00:03:37;;;;;;;73.30;36.95;;;;;;;5.51;79.57;99513.08;2163114;82;20993;-66
2021/10/29 00:06:40;;;;;;;66.53;36.10;;;;;;;5.51;79.46;99511.77;2219271;80;21032;-66
2021/10/29 00:09:41;;;;;;;74.95;38.40;;;;;;;5.48;79.51;99508.80;2220519;80;21558;-66
2021/10/29 00:12:43;;;;;;;72.20;37.13;;;;;;;5.49;79.57;99509.22;2220637;80;21032;-66
2021/10/29 00:15:44;;;;;;;70.67;37.20;;;;;;;5.53;79.85;99501.73;2220632;80;21543;-66
2021/10/29 00:18:46;;;;;;;69.77;37.25;;;;;;;5.52;79.46;99492.20;2220505;80;21108;-66
2021/10/29 00:21:47;;;;;;;66.85;35.68;;;;;;;5.45;79.36;99498.95;2220475;80;21555;-66
2021/10/29 00:24:49;;;;;;;72.70;36.70;;;;;;;5.42;79.55;99492.55;2220737;80;21036;-66
2021/10/29 00:27:50;;;;;;;75.22;37.03;;;;;;;5.39;79.51;99494.78;2220473;80;21091;-66
2021/10/29 00:30:52;;;;;;;71.35;36.25;;;;;;;5.42;79.94;99493.84;2220274;80;21048;-65
2021/10/29 00:33:53;;;;;;;71.87;37.67;;;;;;;5.41;79.84;99489.53;2220503;80;21056;-66
2021/10/29 00:36:55;;;;;;;71.77;37.40;;;;;;;5.49;79.84;99488.86;2220724;80;21044;-66
2021/10/29 00:39:56;;;;;;;73.40;36.90;;;;;;;5.52;79.54;99479.66;2220500;80;21041;-65
2021/10/29 00:42:58;;;;;;;68.70;37.00;;;;;;;5.58;79.55;99482.07;2220494;80;21550;-65
2021/10/29 00:45:59;;;;;;;69.85;38.35;;;;;;;5.59;79.50;99481.61;2220396;80;21080;-66
2021/10/29 00:49:02;;;;;;;71.22;36.75;;;;;;;5.54;79.11;99474.79;2220489;80;21538;-66
2021/10/29 00:52:03;;;;;;;;;;;;;;;5.51;79.26;99478.78;2223156;80;21049;-66
2021/10/29 00:55:05;;;;;;;66.95;37.45;;;;;;;5.54;79.23;99470.05;2220631;80;20123;-66
2021/10/29 00:58:06;;;;;;;66.72;36.15;;;;;;;5.51;79.10;99470.14;2220471;80;21045;-66
2021/10/29 01:01:08;;;;;;;70.83;37.20;;;;;;;5.57;79.11;99471.70;2220459;80;21052;-66
2021/10/29 01:04:09;;;;;;;68.90;37.60;;;;;;;5.54;79.24;99476.09;2220524;80;21029;-66
2021/10/29 01:07:11;;;;;;;69.55;36.75;;;;;;;5.55;79.10;99483.00;2220468;80;21063;-66
2021/10/29 01:10:12;;;;;;;69.10;36.68;;;;;;;5.59;78.81;99479.88;2220121;80;20987;-66
2021/10/29 01:13:14;;;;;;;64.58;34.55;;;;;;;5.55;78.99;99471.30;2220393;80;21598;-66
2021/10/29 01:16:16;;;;;;;69.95;36.75;;;;;;;5.47;78.46;99467.22;2220593;80;21068;-66
2021/10/29 01:19:17;;;;;;;72.67;35.83;;;;;;;5.33;78.71;99463.72;2220684;80;21527;-66
2021/10/29 01:22:18;;;;;;;65.67;36.08;;;;;;;5.28;78.82;99463.86;2220543;80;21111;-66
2021/10/29 01:25:20;;;;;;;71.17;38.00;;;;;;;5.24;79.00;99457.50;2220451;80;21067;-66
2021/10/29 01:28:22;;;;;;;76.87;39.70;;;;;;;5.23;79.16;99459.69;2220545;80;21079;-66
2021/10/29 01:31:24;;;;;;;69.35;36.03;;;;;;;5.30;79.21;99463.38;2220444;80;21587;-66
2021/10/29 01:34:25;;;;;;;73.07;36.33;;;;;;;5.29;78.87;99456.92;2220551;80;21053;-66
2021/10/29 01:37:27;;;;;;;74.07;37.50;;;;;;;5.27;79.40;99463.91;2220338;80;21064;-66
2021/10/29 01:40:28;;;;;;;71.02;37.30;;;;;;;5.17;79.05;99460.71;2220095;80;22308;-66
2021/10/29 01:43:30;;;;;;;71.80;37.93;;;;;;;5.20;79.33;99459.31;2220455;80;21064;-66
2021/10/29 01:46:31;;;;;;;68.30;35.83;;;;;;;5.18;79.14;99453.33;2220669;80;21627;-66
2021/10/29 01:49:33;;;;;;;72.03;38.83;;;;;;;5.09;79.26;99437.54;2220562;80;21426;-66
2021/10/29 01:52:34;;;;;;;68.85;38.33;;;;;;;5.12;79.25;99441.34;2220473;80;21056;-66
2021/10/29 01:55:36;;;;;;;64.50;37.03;;;;;;;5.04;79.24;99442.00;2220583;80;21048;-66
2021/10/29 01:58:37;;;;;;;70.85;37.85;;;;;;;4.95;79.28;99434.48;2220537;80;21036;-66
2021/10/29 02:01:38;;;;;;;71.70;37.28;;;;;;;4.90;79.20;99437.64;2220603;80;21007;-66
2021/10/29 02:04:40;;;;;;;70.03;37.85;;;;;;;4.90;79.61;99438.52;2219281;80;21075;-66
2021/10/29 02:07:41;;;;;;;72.45;36.98;;;;;;;4.96;79.41;99441.39;2210098;81;21590;-66
2021/10/29 02:10:43;;;;;;;70.85;37.85;;;;;;;4.95;79.47;99434.48;2210376;81;20980;-66
2021/10/29 02:13:44;;;;;;;73.70;39.00;;;;;;;4.99;79.25;99434.80;2210337;81;21456;-65
2021/10/29 02:16:46;;;;;;;66.40;36.33;;;;;;;5.03;78.94;99433.83;2210449;81;20972;-66
2021/10/29 02:19:47;;;;;;;68.35;35.85;;;;;;;4.95;78.71;99430.58;2210345;81;21015;-66
2021/10/29 02:22:48;;;;;;;65.62;36.93;;;;;;;4.82;78.82;99429.61;2210309;81;21008;-66
2021/10/29 02:25:50;;;;;;;66.92;36.88;;;;;;;4.74;79.18;99424.22;2210361;81;20972;-66
2021/10/29 02:28:51;;;;;;;71.10;38.25;;;;;;;4.69;79.16;99421.30;2210412;81;21028;-66
2021/10/29 02:31:53;;;;;;;68.75;36.70;;;;;;;4.68;79.21;99414.42;2210326;81;21020;-66
2021/10/29 02:34:54;;;;;;;70.20;38.75;;;;;;;4.62;79.30;99416.33;2210068;81;21527;-65
2021/10/29 02:37:56;;;;;;;67.32;35.80;;;;;;;4.69;79.21;99410.06;2210327;81;21009;-65
2021/10/29 02:40:57;;;;;;;67.78;36.25;;;;;;;4.62;79.06;99407.23;2210307;81;21539;-66
2021/10/29 02:43:59;;;;;;;66.00;34.70;;;;;;;4.61;79.23;99399.02;2210570;81;21028;-66
2021/10/29 02:47:00;;;;;;;71.33;36.95;;;;;;;4.62;79.11;99395.08;2210435;81;21031;-66
2021/10/29 02:50:02;;;;;;;68.57;36.73;;;;;;;4.57;79.32;99402.59;2210459;81;20972;-66
2021/10/29 02:53:05;;;;;;;69.10;36.07;;;;;;;4.53;79.34;99399.70;2210569;81;21028;-66
2021/10/29 02:56:07;;;;;;;71.65;37.20;;;;;;;4.46;79.59;99405.04;2210299;81;21636;-66
2021/10/29 02:59:09;;;;;;;66.97;35.15;;;;;;;4.36;79.57;99401.44;2210404;81;21506;-66
2021/10/29 03:02:10;;;;;;;66.85;36.17;;;;;;;4.33;79.33;99405.81;2210320;81;21016;-66
2021/10/29 03:05:12;;;;;;;69.72;37.10;;;;;;;4.29;79.57;99408.53;2212310;80;21515;-66
2021/10/29 03:08:14;;;;;;;68.80;36.15;;;;;;;4.25;79.78;99399.98;2220559;80;21084;-66
2021/10/29 03:11:15;;;;;;;74.87;39.53;;;;;;;4.27;79.76;99402.54;2220667;80;21511;-66
2021/10/29 03:14:17;;;;;;;82.20;39.83;;;;;;;4.28;79.53;99400.33;2220477;80;21068;-66
2021/10/29 03:17:18;;;;;;;72.47;38.90;;;;;;;4.30;79.39;99399.86;2220519;80;22229;-66
2021/10/29 03:20:20;;;;;;;65.28;36.77;;;;;;;4.27;79.55;99405.13;2220665;80;21063;-66
2021/10/29 03:23:22;;;;;;;63.35;33.70;;;;;;;4.27;79.25;99399.48;2220622;80;21905;-66
2021/10/29 03:26:23;;;;;;;65.97;35.92;;;;;;;4.16;78.30;99401.50;2220559;80;21047;-66
2021/10/29 03:29:25;;;;;;;65.60;35.48;;;;;;;4.10;78.60;99404.27;2220581;80;21063;-66
2021/10/29 03:32:26;;;;;;;66.53;35.20;;;;;;;4.02;78.87;99406.19;2220944;80;21036;-66
2021/10/29 03:35:28;;;;;;;73.22;36.65;;;;;;;3.99;79.37;99409.71;2220567;80;21036;-66
2021/10/29 03:41:37;;;;;;;65.97;35.52;;;;;;;3.93;79.16;99398.19;2190340;80;21020;-66
2021/10/29 03:47:47;;;;;;;67.30;36.30;;;;;;;3.94;80.03;99398.15;2190381;80;20988;-66
2021/10/29 03:50:48;;;;;;;65.78;35.45;;;;;;;4.05;80.12;99394.42;2190294;80;21518;-66
2021/10/29 03:59:53;;;;;;;65.25;35.35;;;;;;;3.97;79.42;99394.17;2190311;80;21024;-66
2021/10/29 04:02:54;;;;;;;65.47;35.27;;;;;;;3.94;79.62;99394.26;2220856;80;21060;-66
2021/10/29 04:05:56;;;;;;;69.22;36.20;;;;;;;3.95;79.68;99390.78;2220529;80;22285;-66
2021/10/29 04:08:57;;;;;;;70.28;36.03;;;;;;;4.00;79.58;99388.06;2220609;80;21032;-66
2021/10/29 04:11:59;;;;;;;72.03;36.95;;;;;;;4.05;79.46;99388.81;2220643;80;21547;-66
2021/10/29 04:15:01;;;;;;;73.17;37.75;;;;;;;4.08;79.25;99391.32;2220847;80;21003;-66
2021/10/29 04:18:02;;;;;;;65.85;36.05;;;;;;;4.03;79.51;99397.52;2220703;80;21471;-66
2021/10/29 04:21:03;;;;;;;72.70;38.42;;;;;;;4.02;79.24;99395.80;2220309;80;21135;-66
2021/10/29 04:24:05;;;;;;;62.53;35.37;;;;;;;3.95;79.43;99390.78;2221115;80;21059;-66
2021/10/29 04:27:07;;;;;;;68.37;36.25;;;;;;;3.94;79.46;99383.87;2220836;80;21044;-66
2021/10/29 04:30:13;;;;;;;65.72;35.30;;;;;;;3.96;79.52;99385.13;2220725;80;20941;-66
2021/10/29 04:33:11;;;;;;;65.45;35.15;;;;;;;3.87;79.32;99386.67;2190480;80;21019;-66
2021/10/29 04:36:13;;;;;;;63.70;34.58;;;;;;;3.79;79.74;99388.14;2220825;80;21020;-66
2021/10/29 04:39:14;;;;;;;66.07;35.00;;;;;;;3.77;79.53;99388.63;2220735;80;21052;-66
2021/10/29 04:42:17;;;;;;;62.60;33.65;;;;;;;3.75;79.72;99385.20;2220821;80;21075;-66
2021/10/29 04:45:18;;;;;;;;;;;;;;;3.71;79.76;99380.55;2223204;80;21104;-66
2021/10/29 04:48:20;;;;;;;67.35;35.65;;;;;;;3.64;79.94;99381.59;2220593;80;20107;-66
2021/10/29 04:51:21;;;;;;;64.95;35.15;;;;;;;3.58;79.95;99383.87;2220611;80;21076;-66
2021/10/29 04:54:23;;;;;;;63.13;34.60;;;;;;;3.55;80.04;99383.95;2220736;80;20964;-65
2021/10/29 04:57:24;;;;;;;60.05;33.45;;;;;;;3.57;80.21;99389.11;2220454;80;21061;-66
2021/10/29 05:00:25;;;;;;;65.30;35.08;;;;;;;3.58;79.77;99392.95;2220602;80;21044;-66
2021/10/29 05:03:27;;;;;;;65.12;33.95;;;;;;;3.58;80.37;99383.03;2220472;80;21056;-66
2021/10/29 05:06:28;;;;;;;70.35;35.38;;;;;;;3.60;79.81;99379.49;2220477;80;21584;-66
2021/10/29 05:09:30;;;;;;;68.17;36.00;;;;;;;3.61;80.07;99386.39;2220738;80;21080;-66
2021/10/29 05:12:31;;;;;;;64.82;35.30;;;;;;;3.62;79.28;99384.64;2220803;80;21752;-66
2021/10/29 05:15:33;;;;;;;68.40;33.75;;;;;;;3.56;79.51;99382.20;2220470;80;21079;-66
2021/10/29 05:18:34;;;;;;;63.87;34.53;;;;;;;3.52;79.45;99380.14;2220776;80;20983;-66
2021/10/29 05:21:36;;;;;;;66.42;34.73;;;;;;;3.40;79.39;99377.36;2220896;80;21059;-66
2021/10/29 05:24:37;;;;;;;66.12;35.23;;;;;;;3.29;79.79;99381.51;2220813;80;21017;-66
2021/10/29 05:27:39;;;;;;;68.33;37.80;;;;;;;3.32;80.21;99383.61;2221038;80;21043;-66
2021/10/29 05:30:40;;;;;;;73.22;41.53;;;;;;;3.36;79.85;99382.66;2220797;80;21067;-66
2021/10/29 05:33:42;;;;;;;71.85;39.40;;;;;;;3.36;79.71;99382.23;2220940;80;21079;-66
2021/10/29 05:36:43;;;;;;;74.07;39.58;;;;;;;3.36;79.94;99383.53;2220998;80;21028;-66
2021/10/29 05:39:45;;;;;;;69.37;37.78;;;;;;;3.49;79.60;99381.48;2220995;80;21861;-66
2021/10/29 05:42:46;;;;;;;58.33;32.73;;;;;;;3.44;79.25;99381.59;2220874;80;21095;-66
2021/10/29 05:45:48;;;;;;;66.00;34.80;;;;;;;3.28;79.07;99386.28;2221124;80;21491;-66
2021/10/29 05:48:50;;;;;;;65.13;34.57;;;;;;;3.28;79.07;99386.28;2221356;80;20991;-66
2021/10/29 05:51:52;;;;;;;64.20;34.43;;;;;;;3.29;78.96;99388.45;2221027;80;21015;-65
2021/10/29 05:57:56;;;;;;;65.57;34.95;;;;;;;3.23;79.07;99389.86;2221238;80;21040;-66
2021/10/29 06:00:57;;;;;;;66.50;34.15;;;;;;;3.20;79.32;99392.06;2221006;80;21463;-66
2021/10/29 06:03:59;;;;;;;60.37;34.43;;;;;;;3.21;79.45;99392.48;2221208;80;21121;-66
2021/10/29 06:07:00;;;;;;;65.20;33.48;;;;;;;3.26;79.63;99393.67;2220649;80;21080;-66
2021/10/29 06:10:02;;;;;;;63.75;33.67;;;;;;;3.41;79.79;99395.94;2220385;80;21049;-66
2021/10/29 06:13:04;;;;;;;66.37;35.23;;;;;;;3.47;79.26;99397.08;2221008;80;20978;-66
2021/10/29 06:16:06;;;;;;;61.23;33.18;;;;;;;3.50;79.38;99397.46;2220592;80;21251;-66
2021/10/29 06:19:08;;;;;;;66.40;36.17;;;;;;;3.60;79.51;99402.84;2220634;80;21040;-65
2021/10/29 06:25:15;;;;;;;66.60;35.43;;;;;;;3.84;79.25;99400.56;2220606;80;21565;-66
2021/10/29 06:28:23;;;;;;;74.77;37.93;;;;;;;3.89;78.74;99399.99;2190504;80;20980;-66
2021/10/29 06:31:19;;;;;;;75.87;39.30;;;;;;;3.97;78.93;99405.86;2190563;80;21015;-65
2021/10/29 06:34:20;;;;;;;81.37;41.65;;;;;;;4.13;78.46;99410.67;2220743;80;20996;-65
2021/10/29 06:37:22;;;;;;;77.75;42.10;;;;;;;4.24;78.75;99412.98;2220614;80;21096;-65
2021/10/29 06:40:25;;;;;;;72.95;38.38;;;;;;;4.36;78.77;99409.23;2220898;80;21055;-66
2021/10/29 06:43:31;;;;;;;70.90;37.93;;;;;;;4.55;78.63;99409.13;2220557;80;21044;-65
2021/10/29 07:01:53;;;;;;;65.05;34.45;;;;;;;5.88;78.10;99418.25;2190378;80;21028;-65
2021/10/29 07:41:27;;;;;;;53.50;29.37;;;;;;;7.92;75.46;99415.66;2193205;80;21031;-65
2021/10/29 07:44:30;;;;;;;56.45;31.07;;;;;;;8.12;75.60;99420.53;2223433;80;21510;-65
2021/10/29 07:47:31;;;;;;;;;;;;;;;8.31;75.04;99418.83;2225941;80;21022;-65
2021/10/29 07:50:33;;;;;;;57.93;30.75;;;;;;;8.66;74.67;99414.34;2223442;80;20112;-65
2021/10/29 07:53:35;;;;;;;60.73;32.58;;;;;;;8.90;74.17;99416.80;2223287;80;21004;-65
2021/10/29 07:56:37;;;;;;;62.50;33.65;;;;;;;9.11;74.11;99418.45;2223481;80;21003;-65
2021/10/29 07:59:38;;;;;;;54.65;29.42;;;;;;;9.28;73.94;99422.92;2223564;80;20987;-65
2021/10/29 08:02:40;;;;;;;59.42;30.97;;;;;;;9.50;73.32;99421.44;2223510;80;21020;-65
2021/10/29 08:05:45;;;;;;;51.90;29.65;;;;;;;9.70;73.30;99417.04;2223370;80;20972;-65
2021/10/29 08:08:45;;;;;;;52.85;29.20;;;;;;;9.97;72.78;99413.98;2193329;80;21005;-65
2021/10/29 08:11:47;;;;;;;50.95;29.20;;;;;;;10.19;72.10;99419.87;2223641;80;20993;-65
2021/10/29 08:14:49;;;;;;;49.58;27.52;;;;;;;10.29;71.36;99418.11;2223083;80;21012;-65
2021/10/29 08:17:51;;;;;;;52.95;28.52;;;;;;;10.34;71.76;99425.30;2223372;80;20991;-65
2021/10/29 08:20:52;;;;;;;50.90;27.30;;;;;;;10.52;71.44;99419.13;2223514;80;21011;-65
2021/10/29 08:23:54;;;;;;;52.62;29.15;;;;;;;10.66;71.41;99418.86;2223493;80;20995;-65
2021/10/29 08:26:55;;;;;;;55.60;27.90;;;;;;;10.98;70.81;99417.66;2223242;80;21475;-65
2021/10/29 08:29:57;;;;;;;54.33;29.23;;;;;;;11.10;70.83;99405.17;2223298;80;21050;-65
2021/10/29 08:32:58;;;;;;;51.80;27.23;;;;;;;11.41;70.58;99408.28;2223511;80;21447;-65
2021/10/29 08:36:00;;;;;;;46.13;25.32;;;;;;;11.60;69.61;99397.59;2223232;80;20964;-65
2021/10/29 08:39:02;;;;;;;50.92;26.25;;;;;;;11.76;68.42;99396.73;2223377;80;21549;-65
2021/10/29 08:42:03;;;;;;;47.73;25.97;;;;;;;11.86;68.87;99398.38;2223488;80;21055;-65
2021/10/29 08:45:06;;;;;;;45.43;25.43;;;;;;;12.00;68.53;99392.38;2223070;80;21589;-65
2021/10/29 08:48:08;;;;;;;47.08;25.72;;;;;;;12.16;67.98;99392.32;2223472;80;20972;-65
2021/10/29 08:51:10;;;;;;;51.48;25.95;;;;;;;12.38;67.68;99388.78;2223260;80;20989;-65
2021/10/29 08:54:11;;;;;;;45.10;25.50;;;;;;;12.62;67.73;99382.52;2223504;80;21043;-65
2021/10/29 08:57:13;;;;;;;45.75;24.07;;;;;;;12.73;66.15;99380.56;2223278;80;21032;-65
2021/10/29 09:00:14;;;;;;;43.53;23.50;;;;;;;12.77;66.90;99382.52;2223611;80;21000;-65
2021/10/29 09:06:42;;;;;;;44.58;24.35;;;;;;;13.07;65.53;99378.94;2191913;80;20949;-65
2021/10/29 09:33:49;;;;;;;41.08;22.77;;;;;;;14.06;63.25;99383.19;2188694;81;20988;-65
2021/10/29 09:36:51;;;;;;;42.93;22.30;;;;;;;14.16;62.84;99388.22;2210526;81;21531;-65
2021/10/29 09:39:52;;;;;;;41.48;23.02;;;;;;;14.32;62.74;99389.34;2210435;81;20988;-65
2021/10/29 09:42:54;;;;;;;42.37;23.27;;;;;;;14.50;62.33;99376.22;2210514;81;21594;-65
2021/10/29 09:45:59;;;;;;;42.27;22.85;;;;;;;14.62;59.83;99373.72;2210205;81;21060;-65
2021/10/29 09:49:05;;;;;;;42.95;22.62;;;;;;;14.72;60.96;99374.31;2188825;81;20976;-65
2021/10/29 09:58:07;;;;;;;41.73;21.48;;;;;;;14.71;60.16;99374.39;2210394;81;21056;-65
2021/10/29 10:01:09;;;;;;;41.95;23.00;;;;;;;14.87;60.32;99369.75;2210311;81;21029;-65
2021/10/29 10:04:11;;;;;;;41.45;23.05;;;;;;;15.15;60.04;99369.59;2210295;81;21131;-65
2021/10/29 10:07:12;;;;;;;40.07;21.43;;;;;;;15.34;59.39;99364.69;2213519;80;21080;-65
2021/10/29 10:10:14;;;;;;;40.60;21.83;;;;;;;15.46;58.18;99364.27;2220709;80;21071;-65
2021/10/29 10:13:16;;;;;;;41.55;23.85;;;;;;;15.57;58.99;99364.79;2220539;80;21563;-66
2021/10/29 10:16:17;;;;;;;41.63;21.52;;;;;;;15.74;59.11;99355.62;2220525;80;21049;-65
2021/10/29 10:19:19;;;;;;;39.80;21.23;;;;;;;15.87;57.77;99358.23;2220566;80;21040;-65
2021/10/29 10:22:22;;;;;;;41.10;21.00;;;;;;;15.87;57.54;99360.38;2220918;80;21031;-65
2021/10/29 10:44:06;;;;;;;35.23;17.92;;;;;;;16.28;55.94;99343.20;2190247;80;21523;-65
2021/10/29 10:46:49;;;;;;;34.95;19.27;;;;;;;16.36;54.67;99338.63;2190282;80;21023;-65
2021/10/29 10:49:55;;;;;;;36.00;18.87;;;;;;;16.40;54.87;99337.44;2190294;80;21024;-65
2021/10/29 10:52:54;;;;;;;35.30;17.48;;;;;;;16.46;55.26;99336.12;2190554;80;20953;-65
2021/10/29 10:56:02;;;;;;;34.43;17.85;;;;;;;16.57;53.84;99333.48;2220681;80;21055;-65
2021/10/29 11:02:21;;;;;;;37.08;18.52;;;;;;;16.76;54.18;99336.84;2220815;80;21633;-65
2021/10/29 11:05:17;;;;;;;35.85;18.32;;;;;;;16.84;54.14;99323.02;2190737;80;21534;-65
2021/10/29 11:11:12;;;;;;;39.53;20.32;;;;;;;17.14;53.84;99324.22;2192861;80;21590;-65
2021/10/29 11:14:14;;;;;;;35.30;19.00;;;;;;;17.19;53.44;99315.40;2223264;80;21031;-65
2021/10/29 11:17:15;;;;;;;36.47;18.47;;;;;;;17.22;53.25;99317.80;2223683;80;20965;-65
2021/10/29 11:20:17;;;;;;;37.23;18.85;;;;;;;17.25;53.24;99316.22;2223492;80;20975;-65
2021/10/29 11:23:18;;;;;;;36.60;18.85;;;;;;;17.28;51.78;99316.00;2223438;80;21547;-65
2021/10/29 11:26:20;;;;;;;33.25;17.82;;;;;;;17.36;51.10;99312.71;2223434;80;20979;-65
2021/10/29 11:29:22;;;;;;;;;;;;;;;17.30;50.74;99311.40;2225920;80;21522;-65
2021/10/29 11:32:24;;;;;;;36.80;19.62;;;;;;;17.35;51.30;99303.06;2223440;80;20120;-65
2021/10/29 11:35:26;;;;;;;35.90;17.82;;;;;;;17.43;50.06;99299.80;2223518;80;20976;-65
2021/10/29 11:38:28;;;;;;;39.37;17.63;;;;;;;17.51;51.64;99302.64;2223575;80;21007;-65
2021/10/29 11:41:29;;;;;;;34.38;18.05;;;;;;;17.60;50.67;99302.40;2223429;80;21285;-65
2021/10/29 11:44:31;;;;;;;35.90;17.87;;;;;;;17.57;50.69;99292.02;2223561;80;21000;-65
2021/10/29 11:47:36;;;;;;;;;;;;;;;17.62;50.23;99290.67;2226136;80;21650;-65
2021/10/29 11:50:37;;;;;;;32.65;16.65;;;;;;;17.56;49.09;99285.88;2193318;80;20108;-65
2021/10/29 11:53:42;;;;;;;33.08;15.93;;;;;;;17.54;48.73;99281.67;2223537;80;21027;-65
2021/10/29 11:56:47;;;;;;;34.50;16.27;;;;;;;17.58;48.58;99277.30;2193218;80;20983;-65
2021/10/29 12:05:59;;;;;;;31.42;15.40;;;;;;;17.83;48.78;99276.60;2193330;80;21044;-65
2021/10/29 12:08:54;;;;;;;30.45;14.60;;;;;;;17.75;47.23;99271.92;2193149;80;21047;-66
2021/10/29 12:11:57;;;;;;;33.75;15.58;;;;;;;17.68;47.11;99271.25;2222960;80;21017;-65
2021/10/29 12:15:06;;;;;;;27.62;13.25;;;;;;;17.76;48.00;99277.59;2223417;80;20988;-65
2021/10/29 12:18:04;;;;;;;29.57;14.05;;;;;;;17.76;46.71;99276.27;2193330;80;20957;-65
2021/10/29 12:21:06;;;;;;;30.08;14.07;;;;;;;17.65;47.39;99275.82;2193355;80;21506;-67
2021/10/29 12:24:10;;;;;;;29.80;14.20;;;;;;;17.75;45.74;99264.45;2223245;80;21062;-65
2021/10/29 12:27:11;;;;;;;31.15;13.78;;;;;;;17.69;47.39;99271.12;2193275;80;21370;-65
2021/10/29 12:30:18;;;;;;;30.95;14.68;;;;;;;17.71;47.98;99273.64;2223516;80;20973;-65
2021/10/29 13:03:47;;;;;;;29.92;13.90;;;;;;;17.63;45.89;99227.88;2193054;80;21512;-66
2021/10/29 13:06:48;;;;;;;27.77;12.73;;;;;;;17.72;45.76;99228.91;2223717;80;21023;-65
2021/10/29 13:09:50;;;;;;;28.25;12.28;;;;;;;17.80;45.63;99223.77;2210589;80;21236;-66
2021/10/29 13:13:03;;;;;;;30.30;13.32;;;;;;;17.79;46.03;99220.78;2210137;81;21076;-65
2021/10/29 13:16:02;;;;;;;27.82;12.45;;;;;;;17.78;45.89;99221.75;2188764;81;20977;-65
2021/10/29 13:19:12;;;;;;;34.08;13.32;;;;;;;17.88;44.64;99217.34;2188820;81;20977;-65
2021/10/29 13:37:42;;;;;;;29.05;12.63;;;;;;;17.75;46.05;99210.91;2210230;81;21008;-65
2021/10/29 14:47:42;;;;;;;29.40;11.75;;;;;;;16.09;45.81;99178.85;2190536;80;20996;-65
2021/10/29 15:42:43;;;;;;;29.10;11.57;;;;;;;11.69;52.81;99185.18;2188788;81;21055;-66
2021/10/29 15:51:41;;;;;;;42.65;21.85;;;;;;;11.04;54.17;99188.47;2188863;81;21013;-65
2021/10/29 15:54:48;;;;;;;;;;;;;;;10.88;54.58;99187.67;2212918;81;21490;-65
2021/10/29 15:57:57;;;;;;;44.20;23.75;;;;;;;10.70;54.92;99186.46;2188779;81;20148;-66
2021/10/29 16:04:04;;;;;;;41.65;21.27;;;;;;;10.25;55.79;99183.23;2188814;81;21009;-66
2021/10/29 16:19:09;;;;;;;46.23;22.22;;;;;;;9.48;57.31;99182.39;2188988;81;20976;-65
2021/10/29 16:22:17;;;;;;;49.30;23.22;;;;;;;9.32;57.86;99180.15;2210576;81;21004;-65
2021/10/29 16:28:20;;;;;;;48.95;22.30;;;;;;;9.22;58.51;99184.98;2188780;81;20989;-65
2021/10/29 16:31:21;;;;;;;43.60;21.37;;;;;;;9.08;59.13;99194.85;2188746;81;21491;-66
2021/10/29 16:34:24;;;;;;;56.37;26.15;;;;;;;8.86;59.29;99189.80;2210230;81;20949;-66
2021/10/29 16:37:26;;;;;;;71.57;36.03;;;;;;;8.85;58.92;99188.13;2210148;81;21108;-66
2021/10/29 16:40:27;;;;;;;58.33;26.85;;;;;;;8.57;59.42;99188.11;2210224;81;21021;-66
2021/10/29 16:43:31;;;;;;;44.93;22.87;;;;;;;8.42;60.32;99192.27;2209894;81;21144;-66
2021/10/29 16:46:34;;;;;;;58.50;30.90;;;;;;;8.37;60.54;99190.31;2164494;81;21017;-66
2021/10/29 16:49:35;;;;;;;57.67;33.42;;;;;;;8.15;60.94;99184.76;2210569;81;20984;-66
2021/10/29 16:52:37;;;;;;;54.93;28.60;;;;;;;7.94;61.91;99182.67;2210336;81;21518;-66
2021/10/29 16:55:40;;;;;;;52.15;26.62;;;;;;;7.92;61.74;99181.04;2210331;81;20957;-66
2021/10/29 16:58:42;;;;;;;49.98;24.55;;;;;;;7.99;61.83;99188.98;2188649;81;21012;-66
2021/10/29 17:01:44;;;;;;;42.33;18.50;;;;;;;8.00;61.60;99185.91;2210305;81;21496;-65
2021/10/29 17:04:45;;;;;;;38.17;16.60;;;;;;;7.86;61.62;99179.98;2210335;81;20984;-66
2021/10/29 17:07:46;;;;;;;46.63;20.72;;;;;;;7.73;61.89;99178.36;2210130;81;21092;-66
2021/10/29 17:10:48;;;;;;;50.08;23.35;;;;;;;7.75;62.26;99185.69;2218603;80;20961;-66
2021/10/29 17:13:49;;;;;;;90.62;40.35;;;;;;;7.45;62.94;99190.00;2220471;80;21028;-66
2021/10/29 17:16:51;;;;;;;64.42;31.10;;;;;;;7.28;63.38;99183.75;2220431;80;21142;-66
2021/10/29 17:19:53;;;;;;;70.75;34.53;;;;;;;7.20;63.80;99185.82;2220612;80;21040;-66
2021/10/29 17:22:54;;;;;;;67.03;30.05;;;;;;;7.18;64.11;99179.80;2220536;80;21063;-66
2021/10/29 17:25:57;;;;;;;78.80;37.90;;;;;;;7.08;63.77;99174.14;2220709;80;21075;-66
2021/10/29 17:28:59;;;;;;;80.70;38.73;;;;;;;7.10;64.22;99184.04;2220736;80;21095;-66
2021/10/29 17:32:00;;;;;;;70.08;30.82;;;;;;;7.04;64.07;99189.95;2220583;80;21075;-66
2021/10/29 17:35:02;;;;;;;52.67;21.48;;;;;;;6.65;64.99;99192.81;2220707;80;21044;-66
2021/10/29 17:38:04;;;;;;;54.30;23.52;;;;;;;6.32;65.90;99184.51;2220192;80;21533;-66
2021/10/29 17:41:06;;;;;;;67.72;29.42;;;;;;;6.21;66.28;99185.77;2220498;80;21072;-66
2021/10/29 17:44:09;;;;;;;62.33;29.92;;;;;;;6.30;65.87;99185.03;2220400;80;21051;-66
2021/10/29 17:47:11;;;;;;;67.82;34.65;;;;;;;6.27;66.07;99183.39;2220502;80;21688;-66
2021/10/29 17:50:14;;;;;;;61.75;30.57;;;;;;;6.32;66.33;99181.91;2220937;80;21091;-66
2021/10/29 17:53:16;;;;;;;55.17;26.05;;;;;;;6.41;66.25;99179.80;2220829;80;21028;-66
2021/10/29 17:56:17;;;;;;;59.58;28.50;;;;;;;6.52;66.26;99177.23;2220555;80;21056;-66
2021/10/29 17:59:18;;;;;;;68.12;32.48;;;;;;;6.56;66.14;99175.74;2220579;80;21528;-66
2021/10/29 18:02:22;;;;;;;67.30;33.73;;;;;;;6.51;64.99;99176.86;2220569;80;21099;-66
2021/10/29 18:05:23;;;;;;;82.60;38.33;;;;;;;6.20;64.66;99174.94;2190322;80;21032;-66
2021/10/29 18:08:29;;;;;;;87.40;43.00;;;;;;;6.02;64.68;99175.19;2220678;80;21491;-66
2021/10/29 18:11:28;;;;;;;142.25;61.33;;;;;;;5.93;65.73;99172.88;2163436;82;21059;-65
2021/10/29 18:14:29;;;;;;;91.97;41.63;;;;;;;5.81;65.99;99174.64;2181905;82;21025;-66
2021/10/29 18:17:31;;;;;;;58.83;28.38;;;;;;;5.79;67.07;99179.90;2181851;82;21558;-66
2021/10/29 18:20:32;;;;;;;59.63;28.15;;;;;;;5.86;67.13;99174.87;2181909;82;20988;-66
2021/10/29 18:23:34;;;;;;;59.35;25.70;;;;;;;6.04;67.62;99167.31;2181982;82;21535;-65
2021/10/29 18:26:36;;;;;;;52.27;23.50;;;;;;;6.18;66.94;99179.38;2181982;82;21012;-66
2021/10/29 18:29:39;;;;;;;68.33;29.37;;;;;;;6.27;66.85;99175.57;2182135;82;20986;-66
2021/10/29 18:32:40;;;;;;;60.67;26.57;;;;;;;6.29;66.01;99177.65;2181801;82;21164;-66
2021/10/29 18:35:42;;;;;;;51.13;23.00;;;;;;;6.34;66.47;99170.98;2182122;81;21559;-66
2021/10/29 18:38:45;;;;;;;49.23;20.12;;;;;;;6.45;67.41;99162.73;2182124;82;20941;-66
2021/10/29 18:41:46;;;;;;;48.30;20.43;;;;;;;6.60;67.25;99163.45;2181979;82;20973;-66
2021/10/29 18:44:48;;;;;;;41.98;19.67;;;;;;;6.75;67.31;99160.69;2182272;82;20945;-66
2021/10/29 18:47:49;;;;;;;44.15;19.37;;;;;;;6.91;67.02;99150.48;2182027;82;21016;-66
2021/10/29 18:50:51;;;;;;;45.60;19.80;;;;;;;7.02;66.83;99148.75;2182070;82;20996;-66
2021/10/29 18:53:52;;;;;;;43.35;20.02;;;;;;;7.12;66.40;99150.06;2182048;82;21519;-66
2021/10/29 18:56:54;;;;;;;45.67;20.35;;;;;;;7.26;66.05;99153.41;2182266;82;20984;-66
2021/10/29 18:59:56;;;;;;;47.35;21.42;;;;;;;7.37;65.55;99160.33;2181785;81;21515;-66
2021/10/29 19:02:58;;;;;;;45.70;20.37;;;;;;;7.09;65.31;99164.08;2182026;82;20999;-66
2021/10/29 19:05:59;;;;;;;45.90;20.90;;;;;;;6.64;65.34;99169.38;2182010;82;21444;-65
2021/10/29 19:09:01;;;;;;;45.37;21.93;;;;;;;6.50;65.79;99162.13;2185213;80;21027;-66
2021/10/29 19:12:02;;;;;;;53.90;25.73;;;;;;;6.49;66.10;99165.63;2220855;80;21519;-66
2021/10/29 19:15:07;;;;;;;50.10;24.82;;;;;;;6.59;65.86;99169.57;2190108;80;21040;-66
2021/10/29 19:18:10;;;;;;;50.75;22.27;;;;;;;6.67;65.95;99165.38;2220819;80;21027;-66
2021/10/29 19:21:12;;;;;;;48.98;21.12;;;;;;;6.72;66.07;99162.11;2220691;80;20991;-66
2021/10/29 19:24:13;;;;;;;45.23;21.02;;;;;;;6.79;65.88;99162.27;2220673;80;21003;-66
2021/10/29 19:27:15;;;;;;;44.15;20.65;;;;;;;6.82;66.05;99161.30;2220850;80;21621;-66